createdAt,value
2023-03-08T00:01:50.121Z,2.03
2023-03-08T00:04:39.414Z,2.03
2023-03-08T00:07:28.782Z,1.85
2023-03-08T00:10:18.602Z,1.92
2023-03-08T00:13:07.770Z,1.88
2023-03-08T00:16:03.977Z,1.80
2023-03-08T00:18:53.241Z,1.90
2023-03-08T00:21:42.575Z,1.90
2023-03-08T00:24:32.408Z,1.92
2023-03-08T00:27:21.611Z,2.13
2023-03-08T00:30:11.661Z,1.90
2023-03-08T00:33:00.880Z,2.00
2023-03-08T00:36:00.980Z,2.05
2023-03-08T00:38:52.501Z,1.92
2023-03-08T00:41:43.196Z,2.00
2023-03-08T00:44:32.413Z,2.15
2023-03-08T00:47:21.721Z,2.05
2023-03-08T00:50:11.545Z,2.10
2023-03-08T00:53:00.863Z,1.98
2023-03-08T00:55:59.319Z,1.95
2023-03-08T00:58:51.394Z,2.05
2023-03-08T01:01:40.964Z,2.00
2023-03-08T01:04:30.242Z,2.10
2023-03-08T01:07:20.344Z,2.00
2023-03-08T01:10:10.155Z,2.00
2023-03-08T01:12:59.692Z,2.10
2023-03-08T01:15:48.971Z,2.10
2023-03-08T01:18:38.162Z,2.00
2023-03-08T01:21:28.753Z,2.00
2023-03-08T01:24:18.064Z,1.90
2023-03-08T01:27:07.365Z,2.10
2023-03-08T01:29:56.712Z,2.03
2023-03-08T01:32:46.559Z,2.00
2023-03-08T01:35:36.016Z,2.03
2023-03-08T01:38:25.659Z,2.10
2023-03-08T01:41:18.815Z,2.22
2023-03-08T01:44:11.737Z,2.22
2023-03-08T01:47:01.055Z,2.10
2023-03-08T01:50:12.570Z,2.00
2023-03-08T01:53:02.414Z,2.00
2023-03-08T01:55:51.670Z,2.10
2023-03-08T01:58:46.578Z,2.30
2023-03-08T02:01:36.421Z,2.20
2023-03-08T02:04:26.433Z,2.13
2023-03-08T02:07:17.172Z,2.00
2023-03-08T02:10:06.958Z,2.20
2023-03-08T02:12:57.236Z,2.00
2023-03-08T02:15:46.681Z,2.10
2023-03-08T02:18:36.043Z,2.22
2023-03-08T02:21:26.560Z,2.13
2023-03-08T02:24:25.157Z,2.13
2023-03-08T02:27:27.312Z,2.20
2023-03-08T02:30:19.520Z,2.10
2023-03-08T02:33:09.314Z,2.10
2023-03-08T02:35:58.742Z,2.28
2023-03-08T02:38:49.003Z,2.15
2023-03-08T02:41:38.345Z,2.13
2023-03-08T02:44:27.930Z,2.35
2023-03-08T02:47:17.298Z,1.90
2023-03-08T02:50:07.678Z,2.00
2023-03-08T02:52:57.150Z,2.15
2023-03-08T02:55:47.539Z,2.35
2023-03-08T02:58:37.032Z,2.10
2023-03-08T03:01:26.439Z,2.10
2023-03-08T03:04:15.815Z,2.00
2023-03-08T03:07:05.256Z,2.30
2023-03-08T03:09:55.422Z,2.33
2023-03-08T03:12:45.097Z,2.30
2023-03-08T03:15:42.020Z,2.10
2023-03-08T03:18:31.283Z,2.30
2023-03-08T03:21:20.714Z,2.25
2023-03-08T03:24:10.234Z,2.47
2023-03-08T03:27:14.349Z,2.67
2023-03-08T03:30:04.033Z,2.40
2023-03-08T03:32:53.556Z,2.60
2023-03-08T03:35:48.041Z,2.65
2023-03-08T03:38:38.124Z,2.35
2023-03-08T03:41:27.484Z,2.40
2023-03-08T03:44:24.273Z,2.50
2023-03-08T03:47:13.668Z,2.40
2023-03-08T03:50:03.038Z,2.45
2023-03-08T03:53:00.604Z,2.40
2023-03-08T03:55:51.127Z,2.45
2023-03-08T03:58:40.854Z,2.40
2023-03-08T04:01:32.780Z,2.85
2023-03-08T04:04:42.131Z,2.50
2023-03-08T04:07:34.879Z,2.40
2023-03-08T04:10:24.693Z,2.40
2023-03-08T04:13:18.916Z,2.42
2023-03-08T04:16:13.818Z,2.80
2023-03-08T04:19:07.086Z,2.50
2023-03-08T04:21:56.705Z,2.38
2023-03-08T04:24:50.134Z,2.78
2023-03-08T04:27:44.418Z,2.70
2023-03-08T04:30:33.893Z,2.60
2023-03-08T04:33:25.507Z,2.60
2023-03-08T04:36:16.810Z,2.45
2023-03-08T04:39:06.652Z,2.67
2023-03-08T04:41:56.367Z,2.50
2023-03-08T04:44:50.128Z,2.53
2023-03-08T04:47:43.497Z,2.47
2023-03-08T04:50:33.710Z,2.42
2023-03-08T04:53:24.741Z,2.42
2023-03-08T04:56:15.997Z,2.40
2023-03-08T04:59:05.927Z,2.47
2023-03-08T05:01:55.344Z,2.53
2023-03-08T05:04:45.940Z,2.53
2023-03-08T05:07:35.202Z,3.03
2023-03-08T05:10:24.921Z,2.75
2023-03-08T05:13:14.170Z,2.60
2023-03-08T05:16:06.595Z,2.92
2023-03-08T05:18:55.959Z,2.40
2023-03-08T05:21:49.144Z,2.60
2023-03-08T05:24:42.200Z,2.72
2023-03-08T05:27:35.583Z,2.47
2023-03-08T05:30:26.873Z,2.80
2023-03-08T05:33:21.287Z,2.58
2023-03-08T05:36:12.854Z,2.85
2023-03-08T05:39:02.683Z,2.60
2023-03-08T05:42:13.829Z,2.78
2023-03-08T05:45:06.353Z,2.70
2023-03-08T05:47:59.180Z,2.72
2023-03-08T05:50:49.551Z,2.58
2023-03-08T05:53:39.419Z,2.30
2023-03-08T05:56:31.110Z,2.70
2023-03-08T05:59:27.777Z,2.80
2023-03-08T06:02:21.524Z,2.60
2023-03-08T06:05:14.599Z,2.63
2023-03-08T06:08:06.599Z,2.58
2023-03-08T06:10:56.350Z,2.88
2023-03-08T06:13:45.909Z,2.60
2023-03-08T06:16:36.485Z,2.72
2023-03-08T06:19:25.983Z,2.75
2023-03-08T06:22:18.524Z,2.65
2023-03-08T06:25:09.168Z,2.60
2023-03-08T06:28:00.580Z,2.70
2023-03-08T06:30:59.391Z,2.47
2023-03-08T06:33:49.060Z,2.70
2023-03-08T06:36:44.810Z,2.40
2023-03-08T06:39:35.220Z,3.05
2023-03-08T06:42:39.867Z,2.70
2023-03-08T06:45:30.473Z,2.40
2023-03-08T06:48:20.496Z,2.70
2023-03-08T06:51:10.260Z,2.78
2023-03-08T06:54:01.761Z,2.80
2023-03-08T06:56:51.879Z,2.67
2023-03-08T06:59:41.136Z,2.60
2023-03-08T07:02:30.504Z,2.63
2023-03-08T07:05:19.787Z,2.72
2023-03-08T07:08:09.506Z,2.60
2023-03-08T07:10:59.804Z,2.70
2023-03-08T07:13:49.241Z,2.80
2023-03-08T07:16:38.674Z,2.78
2023-03-08T07:19:28.081Z,2.60
2023-03-08T07:22:17.566Z,2.65
2023-03-08T07:25:07.115Z,3.03
2023-03-08T07:27:56.917Z,3.00
2023-03-08T07:30:50.422Z,2.97
2023-03-08T07:33:40.519Z,2.50
2023-03-08T07:36:29.786Z,2.85
2023-03-08T07:39:20.088Z,2.75
2023-03-08T07:42:11.757Z,2.70
2023-03-08T07:45:01.682Z,2.70
2023-03-08T07:47:54.477Z,2.65
2023-03-08T07:50:44.025Z,2.83
2023-03-08T07:53:33.736Z,2.45
2023-03-08T07:56:22.951Z,2.33
2023-03-08T07:59:12.455Z,2.63
2023-03-08T08:02:01.656Z,2.70
2023-03-08T08:04:51.781Z,2.42
2023-03-08T08:07:41.256Z,2.83
2023-03-08T08:10:30.985Z,2.70
2023-03-08T08:13:20.192Z,2.95
2023-03-08T08:16:11.702Z,2.60
2023-03-08T08:19:01.195Z,2.63
2023-03-08T08:21:50.606Z,2.63
2023-03-08T08:24:39.855Z,2.70
2023-03-08T08:27:29.046Z,2.45
2023-03-08T08:30:18.682Z,2.83
2023-03-08T08:33:07.972Z,2.83
2023-03-08T08:35:57.837Z,2.88
2023-03-08T08:38:47.367Z,2.80
2023-03-08T08:41:36.653Z,2.80
2023-03-08T08:44:25.896Z,2.45
2023-03-08T08:47:15.127Z,2.70
2023-03-08T08:50:04.539Z,2.70
2023-03-08T08:52:53.869Z,2.60
2023-03-08T08:55:45.424Z,2.63
2023-03-08T08:58:36.406Z,2.58
2023-03-08T09:01:29.101Z,2.45
2023-03-08T09:04:18.556Z,2.37
2023-03-08T09:07:08.447Z,2.85
2023-03-08T09:09:58.203Z,2.67
2023-03-08T09:12:47.683Z,2.85
2023-03-08T09:15:38.289Z,2.70
2023-03-08T09:18:28.476Z,2.70
2023-03-08T09:21:18.242Z,2.97
2023-03-08T09:24:10.357Z,2.40
2023-03-08T09:26:59.810Z,2.70
2023-03-08T09:29:49.019Z,2.85
2023-03-08T09:32:38.443Z,2.50
2023-03-08T09:35:27.885Z,2.70
2023-03-08T09:38:17.164Z,2.65
2023-03-08T09:41:12.176Z,2.97
2023-03-08T09:44:13.444Z,2.60
2023-03-08T09:47:14.829Z,2.60
2023-03-08T09:50:13.315Z,2.60
2023-03-08T09:53:06.625Z,2.70
2023-03-08T09:56:05.343Z,2.80
2023-03-08T09:59:07.142Z,2.53
2023-03-08T10:02:18.282Z,2.95
2023-03-08T10:05:31.438Z,2.85
2023-03-08T10:09:09.146Z,2.57
2023-03-08T10:12:16.908Z,2.78
2023-03-08T10:15:15.851Z,2.70
2023-03-08T10:18:18.608Z,2.63
2023-03-08T10:21:12.210Z,2.60
2023-03-08T10:24:13.491Z,2.40
2023-03-08T10:27:16.910Z,2.55
2023-03-08T10:30:16.652Z,2.70
2023-03-08T10:33:15.637Z,2.50
2023-03-08T10:36:10.454Z,2.45
2023-03-08T10:39:04.949Z,2.50
2023-03-08T10:42:00.149Z,2.78
2023-03-08T10:45:01.975Z,2.80
2023-03-08T10:48:01.388Z,2.60
2023-03-08T10:51:03.398Z,2.60
2023-03-08T10:54:01.253Z,2.67
2023-03-08T10:57:02.319Z,2.50
2023-03-08T10:59:51.976Z,2.55
2023-03-08T11:02:41.218Z,2.50
2023-03-08T11:05:30.866Z,2.75
2023-03-08T11:08:23.314Z,2.70
2023-03-08T11:11:14.791Z,2.60
2023-03-08T11:14:04.042Z,2.30
2023-03-08T11:17:09.170Z,2.58
2023-03-08T11:20:14.771Z,2.63
2023-03-08T11:23:22.410Z,2.50
2023-03-08T11:26:22.042Z,2.50
2023-03-08T11:29:40.606Z,3.03
2023-03-08T11:32:42.204Z,2.40
2023-03-08T11:35:39.196Z,2.60
2023-03-08T11:38:33.459Z,2.67
2023-03-08T11:41:28.510Z,2.40
2023-03-08T11:44:24.030Z,2.75
2023-03-08T11:47:39.389Z,2.60
2023-03-08T11:50:31.796Z,2.63
2023-03-08T11:53:46.560Z,3.00
2023-03-08T11:56:45.528Z,2.75
2023-03-08T11:59:45.971Z,2.53
2023-03-08T12:02:39.732Z,2.80
2023-03-08T12:05:35.513Z,2.45
2023-03-08T12:08:42.532Z,2.50
2023-03-08T12:11:37.745Z,2.67
2023-03-08T12:14:36.333Z,2.92
2023-03-08T12:17:38.398Z,2.80
2023-03-08T12:20:35.750Z,2.97
2023-03-08T12:23:38.593Z,2.70
2023-03-08T12:26:41.572Z,2.77
2023-03-08T12:29:38.903Z,2.67
2023-03-08T12:32:29.233Z,2.83
2023-03-08T12:35:24.811Z,2.85
2023-03-08T12:38:36.664Z,2.80
2023-03-08T12:41:27.747Z,2.78
2023-03-08T12:44:28.976Z,2.67
2023-03-08T12:47:23.528Z,2.50
2023-03-08T12:50:18.694Z,2.75
2023-03-08T12:53:34.117Z,2.88
2023-03-08T12:56:53.567Z,2.88
2023-03-08T12:59:43.086Z,2.90
2023-03-08T13:02:35.802Z,2.40
2023-03-08T13:05:35.354Z,2.37
2023-03-08T13:08:35.675Z,2.30
2023-03-08T13:11:27.373Z,2.60
2023-03-08T13:18:33.709Z,2.40
2023-03-08T13:21:42.456Z,2.50
2023-03-08T13:24:44.377Z,2.72
2023-03-08T13:27:33.617Z,2.63
2023-03-08T13:30:33.600Z,2.60
2023-03-08T13:33:28.325Z,2.40
2023-03-08T13:36:38.093Z,2.60
2023-03-08T13:39:32.424Z,2.65
2023-03-08T13:42:27.923Z,2.60
2023-03-08T13:45:20.339Z,2.50
2023-03-08T13:48:10.643Z,2.70
2023-03-08T13:51:00.926Z,2.63
2023-03-08T13:53:50.473Z,2.55
2023-03-08T13:56:39.819Z,2.47
2023-03-08T13:59:29.289Z,2.40
2023-03-08T14:02:23.028Z,2.20
2023-03-08T14:05:26.180Z,2.55
2023-03-08T14:08:25.829Z,2.50
2023-03-08T14:11:24.474Z,2.55
2023-03-08T14:14:28.662Z,2.50
2023-03-08T14:17:29.682Z,2.85
2023-03-08T14:20:23.389Z,2.50
2023-03-08T14:23:25.119Z,2.70
2023-03-08T14:26:30.646Z,2.47
2023-03-08T14:29:22.778Z,3.13
2023-03-08T14:32:12.405Z,2.63
2023-03-08T14:35:27.669Z,2.50
2023-03-08T14:38:32.403Z,2.30
2023-03-08T14:41:32.618Z,2.72
2023-03-08T14:44:25.882Z,2.53
2023-03-08T14:47:28.213Z,2.75
2023-03-08T14:50:24.105Z,2.42
2023-03-08T14:53:35.859Z,2.20
2023-03-08T14:56:25.128Z,2.33
2023-03-08T14:59:26.846Z,2.22
2023-03-08T15:02:18.732Z,2.27
2023-03-08T15:05:14.141Z,2.28
2023-03-08T15:08:04.604Z,2.10
2023-03-08T15:10:54.208Z,2.15
2023-03-08T15:13:43.816Z,2.20
2023-03-08T15:16:33.299Z,2.10
2023-03-08T15:19:23.055Z,2.30
2023-03-08T15:22:14.889Z,2.25
2023-03-08T15:25:05.922Z,2.20
2023-03-08T15:27:55.196Z,2.10
2023-03-08T15:30:44.770Z,2.30
2023-03-08T15:33:34.101Z,2.13
2023-03-08T15:36:23.304Z,2.25
2023-03-08T15:39:15.558Z,2.17
2023-03-08T15:42:04.892Z,2.35
2023-03-08T15:44:54.232Z,2.42
2023-03-08T15:47:43.447Z,2.20
2023-03-08T15:50:33.926Z,2.20
2023-03-08T15:53:34.799Z,2.30
2023-03-08T15:56:26.710Z,2.38
2023-03-08T15:59:16.084Z,2.03
2023-03-08T16:02:06.032Z,2.60
2023-03-08T16:04:56.843Z,2.08
2023-03-08T16:07:49.305Z,2.55
2023-03-08T16:10:42.172Z,2.30
2023-03-08T16:13:32.170Z,2.00
2023-03-08T16:16:23.442Z,2.40
2023-03-08T16:19:17.544Z,2.00
2023-03-08T16:22:07.435Z,2.08
2023-03-08T16:24:56.720Z,2.40
2023-03-08T16:27:46.121Z,2.20
2023-03-08T16:30:35.410Z,2.30
2023-03-08T16:33:25.027Z,2.10
2023-03-08T16:36:14.948Z,2.10
2023-03-08T16:39:07.743Z,2.20
2023-03-08T16:41:57.119Z,2.40
2023-03-08T16:44:55.236Z,2.30
2023-03-08T16:47:44.586Z,2.03
2023-03-08T16:50:34.218Z,2.00
2023-03-08T16:53:24.661Z,2.10
2023-03-08T16:56:25.691Z,2.13
2023-03-08T16:59:16.579Z,2.20
2023-03-08T17:02:06.005Z,3.15
2023-03-08T17:04:55.361Z,2.05
2023-03-08T17:07:47.476Z,2.30
2023-03-08T17:10:44.995Z,2.38
2023-03-08T17:13:35.014Z,2.20
2023-03-08T17:16:29.800Z,2.20
2023-03-08T17:19:19.739Z,2.53
2023-03-08T17:22:10.209Z,2.55
2023-03-08T17:24:59.743Z,2.10
2023-03-08T17:27:49.077Z,2.15
2023-03-08T17:30:40.592Z,2.10
2023-03-08T17:33:29.953Z,2.17
2023-03-08T17:36:20.106Z,2.20
2023-03-08T17:39:10.014Z,2.45
2023-03-08T17:41:59.279Z,2.00
2023-03-08T17:44:48.512Z,2.10
2023-03-08T17:47:38.647Z,2.28
2023-03-08T17:50:30.717Z,2.00
2023-03-08T17:53:20.773Z,2.25
2023-03-08T17:56:12.958Z,2.28
2023-03-08T17:59:03.822Z,2.20
2023-03-08T18:01:53.322Z,2.10
2023-03-08T18:04:51.145Z,2.00
2023-03-08T18:07:42.092Z,2.08
2023-03-08T18:10:31.565Z,2.33
2023-03-08T18:13:20.858Z,2.40
2023-03-08T18:16:10.333Z,2.13
2023-03-08T18:19:00.856Z,2.13
2023-03-08T18:21:55.158Z,2.10
2023-03-08T18:24:44.432Z,2.00
2023-03-08T18:27:33.755Z,2.17
2023-03-08T18:30:23.248Z,2.20
2023-03-08T18:33:12.908Z,2.10
2023-03-08T18:36:02.882Z,2.13
2023-03-08T18:38:52.169Z,2.13
2023-03-08T18:41:41.911Z,2.10
2023-03-08T18:44:31.184Z,1.98
2023-03-08T18:47:20.869Z,2.25
2023-03-08T18:50:11.131Z,2.30
2023-03-08T18:53:00.491Z,1.92
2023-03-08T18:55:58.094Z,2.03
2023-03-08T18:58:47.387Z,2.13
2023-03-08T19:01:37.684Z,2.15
2023-03-08T19:04:27.507Z,1.95
2023-03-08T19:07:16.710Z,2.35
2023-03-08T19:10:06.276Z,2.08
2023-03-08T19:12:55.575Z,2.03
2023-03-08T19:15:44.920Z,2.03
2023-03-08T19:18:34.541Z,2.08
2023-03-08T19:21:29.596Z,2.05
2023-03-08T19:24:21.057Z,1.77
2023-03-08T19:27:12.188Z,2.63
2023-03-08T19:30:02.775Z,2.10
2023-03-08T19:32:52.174Z,2.10
2023-03-08T19:35:41.661Z,1.90
2023-03-08T19:38:30.986Z,2.00
2023-03-08T19:41:20.224Z,1.95
2023-03-08T19:44:09.641Z,2.00
2023-03-08T19:46:59.932Z,2.08
2023-03-08T19:49:50.581Z,2.00
2023-03-08T19:52:40.175Z,2.28
2023-03-08T19:55:29.473Z,2.30
2023-03-08T19:58:19.553Z,1.80
2023-03-08T20:01:12.142Z,2.00
2023-03-08T20:04:01.748Z,1.90
2023-03-08T20:06:52.184Z,2.03
2023-03-08T20:09:43.336Z,2.10
2023-03-08T20:12:33.498Z,2.00
2023-03-08T20:15:22.848Z,2.10
2023-03-08T20:18:12.565Z,2.20
2023-03-08T20:21:03.185Z,2.22
2023-03-08T20:23:56.456Z,1.95
2023-03-08T20:26:45.822Z,1.85
2023-03-08T20:29:35.617Z,1.80
2023-03-08T20:32:25.076Z,2.20
2023-03-08T20:35:16.133Z,2.15
2023-03-08T20:38:09.710Z,1.95
2023-03-08T20:41:20.520Z,1.80
2023-03-08T20:44:12.942Z,2.10
2023-03-08T20:47:02.529Z,1.90
2023-03-08T20:49:51.830Z,1.92
2023-03-08T20:52:41.172Z,2.08
2023-03-08T20:55:30.742Z,2.20
2023-03-08T20:58:20.108Z,1.90
2023-03-08T21:01:18.501Z,2.20
2023-03-08T21:04:07.960Z,1.80
2023-03-08T21:06:57.588Z,1.83
2023-03-08T21:09:47.049Z,1.92
2023-03-08T21:12:38.705Z,1.80
2023-03-08T21:15:28.562Z,1.83
2023-03-08T21:18:17.813Z,1.90
2023-03-08T21:21:08.035Z,2.00
2023-03-08T21:23:59.697Z,1.90
2023-03-08T21:26:48.984Z,1.80
2023-03-08T21:29:38.262Z,1.90
2023-03-08T21:32:28.079Z,1.80
2023-03-08T21:35:17.528Z,1.83
2023-03-08T21:38:07.314Z,1.73
2023-03-08T21:40:56.713Z,1.83
2023-03-08T21:43:46.104Z,1.80
2023-03-08T21:46:37.553Z,1.85
2023-03-08T21:49:29.058Z,1.95
2023-03-08T21:52:18.525Z,1.80
2023-03-08T21:55:08.191Z,1.70
2023-03-08T21:57:57.540Z,1.90
2023-03-08T22:00:47.678Z,1.98
2023-03-08T22:03:36.974Z,1.83
2023-03-08T22:06:26.717Z,1.92
2023-03-08T22:09:15.966Z,2.35
2023-03-08T22:12:05.545Z,1.98
2023-03-08T22:14:54.845Z,1.75
2023-03-08T22:17:44.429Z,1.75
2023-03-08T22:20:34.054Z,1.88
2023-03-08T22:23:24.079Z,2.20
2023-03-08T22:26:13.477Z,1.92
2023-03-08T22:29:03.052Z,1.90
2023-03-08T22:31:52.461Z,2.05
2023-03-08T22:34:41.878Z,1.95
2023-03-08T22:37:31.161Z,1.92
2023-03-08T22:40:20.741Z,1.83
2023-03-08T22:43:11.052Z,1.90
2023-03-08T22:46:08.560Z,1.90
2023-03-08T22:48:59.391Z,2.00
2023-03-08T22:51:48.742Z,1.85
2023-03-08T22:54:38.433Z,1.85
2023-03-08T22:57:27.747Z,2.00
2023-03-08T23:00:17.493Z,1.88
2023-03-08T23:03:06.847Z,1.88
2023-03-08T23:05:57.414Z,1.85
2023-03-08T23:08:47.869Z,1.73
2023-03-08T23:11:38.449Z,1.90
2023-03-08T23:14:27.771Z,1.80
2023-03-08T23:17:17.051Z,1.92
2023-03-08T23:20:06.854Z,1.80
2023-03-08T23:22:56.165Z,1.83
2023-03-08T23:25:45.530Z,1.70
2023-03-08T23:28:36.376Z,1.98
2023-03-08T23:31:29.256Z,1.90
2023-03-08T23:34:18.657Z,1.80
2023-03-08T23:37:08.066Z,1.63
2023-03-08T23:39:57.309Z,1.90
2023-03-08T23:42:46.655Z,1.80
2023-03-08T23:45:35.994Z,1.80
2023-03-08T23:48:25.329Z,1.85
2023-03-08T23:51:20.905Z,1.80
2023-03-08T23:54:12.017Z,1.90
2023-03-08T23:57:01.292Z,1.70
2023-03-08T23:59:50.589Z,1.90
